Current Conditions
Clear
Conditions



Pressure
1023.92 (hPa) - 30.24 (inHG)
Visibility

10.0 (km) - 6.2 (miles)
   Temperature
11  °C
52°F
0  °C
Dewpoint
47  %
 Humidity
   Wind Speed
5  km/h
3  kts
3  mph
1.3  m/s
   Wind Direction
 150°
South South
East
   Airport Data
EHGG
Location Eelde 47 km (29.21 mi)
Metar :EHGG 041825Z AUTO 15003KT 120V200 9999 NSC 11/M00 Q1024 NOSIG
Sat 4th April 19:25 pm
   Raw Metar Info
Raw METAR is the most common format in the world for the transmission of observational weather data. It is highly standardized through the International Civil Aviation Organization (ICAO), which allows it to be understood throughout most of the world.
   API Info
Data Provided by
https://www.checkwx.com/weather/EHGG
   © Info
CSS/SVG/PHP scripts were developed by weather34.com for use in the weather34 template © 2015-2020

Guide Info provided by Metar-Wikipedia